Time;durP1;ratioP1;P1;durP2;ratioP2;P2;SDS_P1;SDS_P2;PMS_P1;PMS_P2;Temp;Humidity;BMP_temperature;BMP_pressure;BME280_temperature;BME280_humidity;BME280_pressure;Samples;Min_cycle;Max_cycle;Signal;HPM_P1;HPM_P2
2021/09/18 00:01:07;;;;;;;47.03;34.27;;;;;;;;;;5031661;28;20405;-46
2021/09/18 00:03:33;;;;;;;43.20;33.70;;;;;;;;;;5031699;28;20434;-45
2021/09/18 00:05:59;;;;;;;39.90;31.57;;;;;;;;;;5031905;28;20422;-46
2021/09/18 00:08:25;;;;;;;46.70;34.00;;;;;;;;;;5031558;28;20452;-45
2021/09/18 00:10:51;;;;;;;43.93;31.93;;;;;;;;;;5031688;28;20857;-45
2021/09/18 00:13:17;;;;;;;44.20;34.77;;;;;;;;;;5031623;28;20781;-46
2021/09/18 00:15:44;;;;;;;45.93;32.50;;;;;;;;;;5031419;28;20450;-46
2021/09/18 00:18:10;;;;;;;46.10;32.40;;;;;;;;;;5031548;28;20774;-46
2021/09/18 00:20:36;;;;;;;54.10;37.97;;;;;;;;;;5032629;28;20406;-45
2021/09/18 00:23:02;;;;;;;53.93;38.10;;;;;;;;;;5035723;28;20406;-45
2021/09/18 00:25:28;;;;;;;51.30;35.67;;;;;;;;;;5035548;28;20886;-46
2021/09/18 00:27:54;;;;;;;51.77;36.00;;;;;;;;;;5035397;28;20885;-46
2021/09/18 00:30:20;;;;;;;45.83;35.53;;;;;;;;;;5035331;28;20457;-45
2021/09/18 00:32:46;;;;;;;50.03;35.53;;;;;;;;;;5035406;28;20376;-46
2021/09/18 00:35:12;;;;;;;49.67;35.80;;;;;;;;;;5035563;28;20749;-46
2021/09/18 00:37:38;;;;;;;51.33;37.50;;;;;;;;;;5035133;28;20453;-46
2021/09/18 00:40:05;;;;;;;56.90;36.07;;;;;;;;;;5035382;28;20894;-46
2021/09/18 00:42:31;;;;;;;53.97;35.33;;;;;;;;;;5035232;28;20471;-45
2021/09/18 00:44:57;;;;;;;46.63;34.90;;;;;;;;;;5035145;28;20420;-46
2021/09/18 00:47:23;;;;;;;50.77;36.10;;;;;;;;;;5034911;28;20436;-45
2021/09/18 00:49:49;;;;;;;53.73;37.17;;;;;;;;;;5034952;28;20428;-45
2021/09/18 00:52:21;;;;;;;53.00;38.30;;;;;;;;;;5035066;28;20372;-46
2021/09/18 00:54:48;;;;;;;63.53;41.77;;;;;;;;;;5035077;28;20402;-45
2021/09/18 00:57:14;;;;;;;62.77;39.10;;;;;;;;;;5034753;28;20832;-45
2021/09/18 00:59:40;;;;;;;57.77;41.03;;;;;;;;;;5034862;28;20421;-46
2021/09/18 01:02:06;;;;;;;61.07;38.37;;;;;;;;;;5034386;28;20385;-46
2021/09/18 01:04:32;;;;;;;59.20;38.93;;;;;;;;;;5034224;28;20468;-45
2021/09/18 01:06:58;;;;;;;60.17;39.60;;;;;;;;;;5034129;28;20409;-46
2021/09/18 01:09:24;;;;;;;60.70;39.43;;;;;;;;;;5034722;28;20411;-46
2021/09/18 01:11:50;;;;;;;61.57;39.60;;;;;;;;;;5034589;28;20923;-47
2021/09/18 01:14:16;;;;;;;57.23;39.40;;;;;;;;;;5034966;28;20437;-46
2021/09/18 01:16:42;;;;;;;60.73;41.70;;;;;;;;;;5034230;28;20450;-46
2021/09/18 01:19:08;;;;;;;54.23;36.70;;;;;;;;;;5034605;28;20410;-46
2021/09/18 01:21:34;;;;;;;53.57;36.57;;;;;;;;;;5034427;28;20470;-48
2021/09/18 01:24:00;;;;;;;52.37;37.37;;;;;;;;;;5034504;28;20403;-49
2021/09/18 01:26:30;;;;;;;61.70;39.60;;;;;;;;;;5034565;28;20457;-45
2021/09/18 01:28:56;;;;;;;56.70;39.83;;;;;;;;;;5034595;28;20398;-46
2021/09/18 01:31:22;;;;;;;64.63;40.27;;;;;;;;;;5033992;28;20498;-45
2021/09/18 01:33:52;;;;;;;57.30;39.43;;;;;;;;;;5034353;28;20467;-45
2021/09/18 01:36:18;;;;;;;60.77;40.03;;;;;;;;;;5034478;28;20422;-46
2021/09/18 01:38:44;;;;;;;60.67;38.83;;;;;;;;;;5034039;28;20857;-46
2021/09/18 01:41:10;;;;;;;61.83;38.40;;;;;;;;;;5034173;28;20422;-46
2021/09/18 01:43:36;;;;;;;60.83;37.10;;;;;;;;;;5034254;28;20385;-46
2021/09/18 01:46:02;;;;;;;57.33;36.80;;;;;;;;;;5034043;28;20481;-46
2021/09/18 01:48:28;;;;;;;55.00;37.97;;;;;;;;;;5033903;28;20410;-48
2021/09/18 01:51:00;;;;;;;51.67;36.30;;;;;;;;;;5033946;28;20432;-45
2021/09/18 01:53:29;;;;;;;58.60;39.07;;;;;;;;;;5034063;28;20398;-48
2021/09/18 01:55:55;;;;;;;58.20;38.47;;;;;;;;;;5033894;28;20437;-46
2021/09/18 01:58:21;;;;;;;58.67;40.23;;;;;;;;;;5033884;28;20475;-46
2021/09/18 02:00:49;;;;;;;59.50;37.37;;;;;;;;;;5033814;28;20916;-48
2021/09/18 02:03:15;;;;;;;56.80;38.30;;;;;;;;;;5033860;28;20402;-46
2021/09/18 02:05:41;;;;;;;65.90;39.90;;;;;;;;;;5033721;28;20422;-48
2021/09/18 02:08:07;;;;;;;65.53;41.13;;;;;;;;;;5033554;28;20938;-45
2021/09/18 02:10:33;;;;;;;63.53;39.37;;;;;;;;;;5033595;28;20451;-45
2021/09/18 02:13:01;;;;;;;57.80;40.20;;;;;;;;;;5033542;28;20402;-49
2021/09/18 02:15:27;;;;;;;65.97;41.47;;;;;;;;;;5033369;28;20409;-46
2021/09/18 02:17:53;;;;;;;61.53;40.00;;;;;;;;;;5033383;28;20398;-45
2021/09/18 02:20:20;;;;;;;57.30;39.57;;;;;;;;;;5033427;28;20779;-45
2021/09/18 02:22:46;;;;;;;62.97;41.33;;;;;;;;;;5033352;28;20878;-46
2021/09/18 02:25:13;;;;;;;68.17;43.17;;;;;;;;;;5033482;28;20481;-47
2021/09/18 02:27:39;;;;;;;66.73;41.63;;;;;;;;;;5033273;28;20811;-47
2021/09/18 02:30:06;;;;;;;64.57;43.37;;;;;;;;;;5033135;28;20528;-46
2021/09/18 02:32:35;;;;;;;58.23;39.03;;;;;;;;;;5033269;28;20915;-45
2021/09/18 02:35:01;;;;;;;63.13;41.93;;;;;;;;;;5033395;28;20487;-45
2021/09/18 02:37:27;;;;;;;63.13;38.93;;;;;;;;;;5032834;28;20426;-47
2021/09/18 02:39:53;;;;;;;69.23;38.40;;;;;;;;;;5033126;28;20410;-48
2021/09/18 02:42:19;;;;;;;61.40;39.30;;;;;;;;;;5032946;28;20416;-45
2021/09/18 02:44:45;;;;;;;61.83;41.50;;;;;;;;;;5032297;28;20415;-46
2021/09/18 02:47:11;;;;;;;69.20;37.23;;;;;;;;;;5032872;28;20430;-45
2021/09/18 02:49:37;;;;;;;57.30;37.30;;;;;;;;;;5032847;28;20439;-45
2021/09/18 02:52:03;;;;;;;56.60;37.40;;;;;;;;;;5032703;28;20493;-45
2021/09/18 02:54:29;;;;;;;59.13;39.00;;;;;;;;;;5032812;28;20444;-46
2021/09/18 02:56:55;;;;;;;60.17;40.17;;;;;;;;;;5032492;28;20452;-46
2021/09/18 02:59:21;;;;;;;57.57;38.87;;;;;;;;;;5032989;28;20402;-46
2021/09/18 03:01:47;;;;;;;58.93;39.57;;;;;;;;;;5032652;28;20407;-46
2021/09/18 03:04:13;;;;;;;63.73;40.10;;;;;;;;;;5032750;28;20406;-48
2021/09/18 03:06:39;;;;;;;60.37;38.33;;;;;;;;;;5032407;28;20457;-45
2021/09/18 03:09:04;;;;;;;56.43;35.90;;;;;;;;;;5032553;28;20404;-45
2021/09/18 03:11:30;;;;;;;63.40;36.20;;;;;;;;;;5032394;28;20458;-46
2021/09/18 03:13:56;;;;;;;57.27;37.43;;;;;;;;;;5032362;28;20437;-46
2021/09/18 03:16:22;;;;;;;61.60;37.47;;;;;;;;;;5032421;28;20461;-45
2021/09/18 03:18:48;;;;;;;51.47;35.50;;;;;;;;;;5032144;28;20408;-46
2021/09/18 03:21:14;;;;;;;58.97;37.20;;;;;;;;;;5032256;28;20399;-45
2021/09/18 03:23:40;;;;;;;62.37;37.13;;;;;;;;;;5032342;28;20880;-47
2021/09/18 03:26:07;;;;;;;54.83;37.57;;;;;;;;;;5032207;28;20434;-48
2021/09/18 03:28:33;;;;;;;60.73;36.50;;;;;;;;;;5032001;28;20406;-47
2021/09/18 03:30:59;;;;;;;52.70;34.70;;;;;;;;;;5032399;28;20469;-46
2021/09/18 03:33:25;;;;;;;66.00;35.40;;;;;;;;;;5032648;28;20423;-46
2021/09/18 03:35:51;;;;;;;53.43;35.93;;;;;;;;;;5031986;28;20425;-47
2021/09/18 03:38:17;;;;;;;58.70;35.40;;;;;;;;;;5031915;28;20967;-46
2021/09/18 03:40:44;;;;;;;52.97;34.90;;;;;;;;;;5032046;28;20432;-46
2021/09/18 03:43:10;;;;;;;52.30;36.03;;;;;;;;;;5031933;28;20405;-45
2021/09/18 03:45:36;;;;;;;55.57;36.43;;;;;;;;;;5032027;28;20420;-46
2021/09/18 03:48:02;;;;;;;56.83;38.10;;;;;;;;;;5031846;28;20917;-46
2021/09/18 03:50:28;;;;;;;57.13;36.60;;;;;;;;;;5031725;28;20876;-47
2021/09/18 03:52:54;;;;;;;63.27;38.97;;;;;;;;;;5031963;28;20483;-48
2021/09/18 03:55:20;;;;;;;59.60;37.73;;;;;;;;;;5031758;28;20490;-45
2021/09/18 03:57:46;;;;;;;67.53;38.93;;;;;;;;;;5031708;28;20509;-45
2021/09/18 04:00:12;;;;;;;62.53;38.90;;;;;;;;;;5031865;28;20408;-45
2021/09/18 04:02:38;;;;;;;66.40;39.73;;;;;;;;;;5031711;28;20416;-45
2021/09/18 04:05:04;;;;;;;66.17;39.50;;;;;;;;;;5031762;28;20446;-45
2021/09/18 04:07:31;;;;;;;71.67;41.30;;;;;;;;;;5031511;28;20424;-44
2021/09/18 04:09:56;;;;;;;64.73;40.03;;;;;;;;;;5031564;28;20495;-45
2021/09/18 04:12:23;;;;;;;59.00;40.27;;;;;;;;;;5031637;28;20439;-46
2021/09/18 04:14:48;;;;;;;57.80;38.00;;;;;;;;;;5031712;28;20410;-45
2021/09/18 04:17:14;;;;;;;64.97;39.70;;;;;;;;;;5031217;28;20469;-46
2021/09/18 04:19:40;;;;;;;59.73;39.83;;;;;;;;;;5031609;28;20408;-46
2021/09/18 04:22:08;;;;;;;62.33;37.33;;;;;;;;;;5031653;28;20412;-46
2021/09/18 04:24:34;;;;;;;62.73;40.37;;;;;;;;;;5031679;28;20383;-45
2021/09/18 04:26:59;;;;;;;62.53;39.07;;;;;;;;;;5031232;28;20477;-45
2021/09/18 04:29:26;;;;;;;64.80;39.70;;;;;;;;;;5031463;28;20902;-45
2021/09/18 04:31:51;;;;;;;57.87;39.10;;;;;;;;;;5031451;28;20406;-45
2021/09/18 04:34:18;;;;;;;58.77;38.73;;;;;;;;;;5032220;28;20400;-45
2021/09/18 04:36:44;;;;;;;58.93;38.37;;;;;;;;;;5031415;28;20444;-46
2021/09/18 04:39:09;;;;;;;65.57;39.60;;;;;;;;;;5031295;28;20430;-46
2021/09/18 04:41:35;;;;;;;61.13;39.53;;;;;;;;;;5031329;28;20412;-46
2021/09/18 04:44:01;;;;;;;70.73;39.97;;;;;;;;;;5031392;28;20428;-45
2021/09/18 04:46:27;;;;;;;69.50;38.20;;;;;;;;;;5031284;28;20845;-47
2021/09/18 04:48:53;;;;;;;61.57;39.23;;;;;;;;;;5031047;28;20404;-46
2021/09/18 04:51:19;;;;;;;61.17;38.13;;;;;;;;;;5031260;28;20459;-45
2021/09/18 04:53:45;;;;;;;58.57;38.00;;;;;;;;;;5031331;28;20482;-45
2021/09/18 04:56:11;;;;;;;60.70;38.80;;;;;;;;;;5031227;28;20483;-45
2021/09/18 04:58:37;;;;;;;59.73;37.57;;;;;;;;;;5031459;28;20407;-45
2021/09/18 05:01:03;;;;;;;65.07;39.80;;;;;;;;;;5031121;28;20490;-47
2021/09/18 05:03:29;;;;;;;67.60;42.37;;;;;;;;;;5031171;28;20919;-45
2021/09/18 05:05:55;;;;;;;64.87;41.20;;;;;;;;;;5031171;28;20428;-45
2021/09/18 05:08:21;;;;;;;69.87;40.80;;;;;;;;;;5034713;28;20436;-46
2021/09/18 05:10:47;;;;;;;64.13;38.53;;;;;;;;;;5034630;28;20484;-45
2021/09/18 05:13:13;;;;;;;66.33;39.37;;;;;;;;;;5034731;28;20467;-46
2021/09/18 05:15:39;;;;;;;57.90;39.57;;;;;;;;;;5034490;28;20439;-48
2021/09/18 05:18:05;;;;;;;59.67;39.00;;;;;;;;;;5034469;28;20456;-45
2021/09/18 05:20:31;;;;;;;70.30;41.50;;;;;;;;;;5034581;28;20398;-46
2021/09/18 05:22:57;;;;;;;58.07;39.10;;;;;;;;;;5034550;28;20421;-46
2021/09/18 05:25:23;;;;;;;61.07;38.47;;;;;;;;;;5034494;28;20397;-46
2021/09/18 05:27:49;;;;;;;56.90;37.63;;;;;;;;;;5034184;28;20393;-45
2021/09/18 05:30:15;;;;;;;61.70;39.47;;;;;;;;;;5034232;28;20973;-45
2021/09/18 05:32:41;;;;;;;56.47;37.80;;;;;;;;;;5034653;28;20397;-46
2021/09/18 05:35:07;;;;;;;68.37;39.10;;;;;;;;;;5034523;28;21028;-46
2021/09/18 05:37:33;;;;;;;54.90;36.37;;;;;;;;;;5034073;28;20785;-46
2021/09/18 05:39:59;;;;;;;61.60;39.13;;;;;;;;;;5034182;28;20402;-45
2021/09/18 05:42:25;;;;;;;56.23;36.27;;;;;;;;;;5034590;28;20748;-46
2021/09/18 05:44:51;;;;;;;58.13;38.80;;;;;;;;;;5034002;28;20415;-47
2021/09/18 05:47:17;;;;;;;64.40;37.47;;;;;;;;;;5033886;28;20447;-48
2021/09/18 05:49:43;;;;;;;64.63;39.60;;;;;;;;;;5033986;28;20421;-45
2021/09/18 05:52:09;;;;;;;63.03;39.53;;;;;;;;;;5033971;28;20435;-46
2021/09/18 05:54:35;;;;;;;63.43;40.87;;;;;;;;;;5033979;28;20407;-46
2021/09/18 05:57:01;;;;;;;63.07;39.20;;;;;;;;;;5033684;28;20518;-45
2021/09/18 05:59:27;;;;;;;68.10;38.87;;;;;;;;;;5033777;28;20404;-45
2021/09/18 06:01:53;;;;;;;61.40;38.33;;;;;;;;;;5033754;28;20461;-46
2021/09/18 06:04:19;;;;;;;61.70;38.40;;;;;;;;;;5033816;28;20404;-46
2021/09/18 06:06:45;;;;;;;67.90;39.97;;;;;;;;;;5033641;28;20513;-45
2021/09/18 06:09:11;;;;;;;65.23;38.00;;;;;;;;;;5033410;28;20416;-45
2021/09/18 06:11:37;;;;;;;62.03;40.07;;;;;;;;;;5033591;28;20976;-46
2021/09/18 06:14:03;;;;;;;66.77;40.77;;;;;;;;;;5033502;28;20511;-48
2021/09/18 06:16:29;;;;;;;65.40;41.00;;;;;;;;;;5033491;28;20759;-46
2021/09/18 06:18:55;;;;;;;70.00;43.70;;;;;;;;;;5032186;28;20415;-45
2021/09/18 06:21:21;;;;;;;81.30;45.07;;;;;;;;;;5033439;28;20414;-45
2021/09/18 06:23:47;;;;;;;74.13;44.50;;;;;;;;;;5033475;28;20409;-45
2021/09/18 06:26:16;;;;;;;70.50;46.40;;;;;;;;;;5033287;28;20432;-46
2021/09/18 06:28:42;;;;;;;71.07;45.07;;;;;;;;;;5033110;28;20973;-46
2021/09/18 06:31:08;;;;;;;76.97;43.67;;;;;;;;;;5033120;28;20458;-45
2021/09/18 06:33:34;;;;;;;64.87;42.43;;;;;;;;;;5033330;28;20897;-45
2021/09/18 06:36:00;;;;;;;59.07;39.33;;;;;;;;;;5033172;28;20422;-45
2021/09/18 06:38:26;;;;;;;59.60;39.93;;;;;;;;;;5033064;28;20425;-46
2021/09/18 06:40:53;;;;;;;59.80;39.30;;;;;;;;;;5033061;28;20402;-46
2021/09/18 06:43:19;;;;;;;64.20;39.80;;;;;;;;;;5033018;28;20419;-49
2021/09/18 06:45:45;;;;;;;56.90;38.00;;;;;;;;;;5033287;28;20760;-48
2021/09/18 06:48:11;;;;;;;56.93;38.20;;;;;;;;;;5032804;28;20454;-45
2021/09/18 06:50:38;;;;;;;52.70;35.70;;;;;;;;;;5033012;28;20751;-47
2021/09/18 06:53:04;;;;;;;45.50;33.97;;;;;;;;;;5032878;28;20410;-46
2021/09/18 06:55:31;;;;;;;47.53;35.30;;;;;;;;;;5032797;28;20380;-46
2021/09/18 06:57:57;;;;;;;51.17;36.57;;;;;;;;;;5032533;28;20425;-46
2021/09/18 07:00:23;;;;;;;44.77;32.30;;;;;;;;;;5032833;28;20403;-46
2021/09/18 07:02:49;;;;;;;46.00;34.07;;;;;;;;;;5032666;28;20407;-45
2021/09/18 07:05:15;;;;;;;45.17;33.83;;;;;;;;;;5032941;28;20418;-46
2021/09/18 07:07:41;;;;;;;44.93;32.40;;;;;;;;;;5032403;28;20419;-46
2021/09/18 07:10:07;;;;;;;41.90;33.40;;;;;;;;;;5032524;28;20498;-47
2021/09/18 07:12:33;;;;;;;45.37;32.80;;;;;;;;;;5032410;28;20402;-47
2021/09/18 07:14:59;;;;;;;46.00;34.37;;;;;;;;;;5032566;28;20406;-46
2021/09/18 07:17:25;;;;;;;48.27;31.60;;;;;;;;;;5032126;28;20442;-46
2021/09/18 07:19:51;;;;;;;28.70;22.70;;;;;;;;;;5032388;28;20464;-47
2021/09/18 07:22:18;;;;;;;33.33;26.00;;;;;;;;;;5032267;28;20485;-47
2021/09/18 07:24:43;;;;;;;26.90;22.87;;;;;;;;;;5032362;28;20408;-47
2021/09/18 07:27:09;;;;;;;36.90;25.77;;;;;;;;;;5032014;28;20500;-48
2021/09/18 07:29:35;;;;;;;31.00;25.47;;;;;;;;;;5031927;28;20402;-46
2021/09/18 07:32:01;;;;;;;32.67;26.30;;;;;;;;;;5032174;28;20406;-46
2021/09/18 07:34:27;;;;;;;37.30;31.17;;;;;;;;;;5032141;28;20534;-46
2021/09/18 07:36:53;;;;;;;39.90;31.50;;;;;;;;;;5032073;28;20425;-47
2021/09/18 07:39:20;;;;;;;40.20;33.53;;;;;;;;;;5031873;28;20810;-46
2021/09/18 07:41:46;;;;;;;39.47;31.50;;;;;;;;;;5032316;28;20403;-46
2021/09/18 07:44:12;;;;;;;39.10;30.47;;;;;;;;;;5032047;28;20775;-47
2021/09/18 07:46:38;;;;;;;36.50;30.83;;;;;;;;;;5032081;28;20627;-46
2021/09/18 07:49:04;;;;;;;42.37;31.10;;;;;;;;;;5031761;28;20407;-47
2021/09/18 07:51:30;;;;;;;44.20;34.50;;;;;;;;;;5031859;28;20459;-46
2021/09/18 07:53:56;;;;;;;44.53;32.40;;;;;;;;;;5031834;28;20427;-47
2021/09/18 07:56:22;;;;;;;45.07;33.87;;;;;;;;;;5031761;28;20799;-47
2021/09/18 07:58:49;;;;;;;53.13;37.67;;;;;;;;;;5031670;28;20853;-47
2021/09/18 08:01:15;;;;;;;49.43;35.00;;;;;;;;;;5031898;28;20972;-46
2021/09/18 08:03:41;;;;;;;45.83;38.33;;;;;;;;;;5031910;28;20413;-46
2021/09/18 08:06:09;;;;;;;44.30;33.70;;;;;;;;;;5031716;28;20429;-47
2021/09/18 08:08:35;;;;;;;42.03;29.90;;;;;;;;;;5031551;28;20412;-47
2021/09/18 08:11:01;;;;;;;43.00;35.00;;;;;;;;;;5031552;28;20893;-47
2021/09/18 08:13:26;;;;;;;42.00;30.03;;;;;;;;;;5031715;28;20761;-49
2021/09/18 08:15:52;;;;;;;39.57;31.00;;;;;;;;;;5031601;28;20930;-47
2021/09/18 08:18:18;;;;;;;39.03;31.50;;;;;;;;;;5031549;28;20809;-47
2021/09/18 08:20:44;;;;;;;39.30;29.83;;;;;;;;;;5031619;28;20402;-46
2021/09/18 08:23:10;;;;;;;47.77;35.50;;;;;;;;;;5031441;28;20536;-46
2021/09/18 08:25:36;;;;;;;57.93;39.63;;;;;;;;;;5031804;28;20563;-47
2021/09/18 08:28:02;;;;;;;54.63;36.40;;;;;;;;;;5031396;28;20394;-47
2021/09/18 08:30:28;;;;;;;60.77;47.13;;;;;;;;;;5031419;28;21053;-47
2021/09/18 08:32:54;;;;;;;59.80;42.60;;;;;;;;;;5031661;28;20824;-47
2021/09/18 08:35:20;;;;;;;57.43;43.57;;;;;;;;;;5031336;28;20436;-46
2021/09/18 08:37:46;;;;;;;56.33;41.20;;;;;;;;;;5031229;28;20438;-47
2021/09/18 08:40:12;;;;;;;63.30;43.00;;;;;;;;;;5031325;28;20414;-47
2021/09/18 08:42:39;;;;;;;59.87;38.63;;;;;;;;;;5033982;28;20402;-50
2021/09/18 08:45:06;;;;;;;55.40;40.50;;;;;;;;;;5035497;28;20406;-46
2021/09/18 08:47:33;;;;;;;52.03;35.67;;;;;;;;;;5034996;28;20430;-46
2021/09/18 08:50:00;;;;;;;47.30;38.23;;;;;;;;;;5035092;28;20576;-47
2021/09/18 08:52:26;;;;;;;48.60;37.10;;;;;;;;;;5035042;28;20394;-47
2021/09/18 08:54:53;;;;;;;52.17;37.87;;;;;;;;;;5035102;28;20485;-47
2021/09/18 08:57:19;;;;;;;46.20;35.80;;;;;;;;;;5034987;28;20417;-47
2021/09/18 08:59:45;;;;;;;45.50;35.13;;;;;;;;;;5035246;28;20417;-47
2021/09/18 09:02:12;;;;;;;51.40;33.77;;;;;;;;;;5034955;28;20496;-47
2021/09/18 09:04:38;;;;;;;39.13;31.57;;;;;;;;;;5034877;28;20410;-48
2021/09/18 09:07:04;;;;;;;41.77;31.77;;;;;;;;;;5034707;28;20917;-48
2021/09/18 09:09:50;;;;;;;51.67;35.53;;;;;;;;;;5034508;28;20442;-50
2021/09/18 09:12:25;;;;;;;42.47;31.23;;;;;;;;;;5035088;28;20413;-48
2021/09/18 09:14:51;;;;;;;45.50;31.83;;;;;;;;;;5030531;28;20416;-47
2021/09/18 09:17:28;;;;;;;43.17;31.10;;;;;;;;;;5016538;28;20450;-46
2021/09/18 09:19:55;;;;;;;44.30;33.40;;;;;;;;;;5034535;28;20409;-46
2021/09/18 09:22:37;;;;;;;44.13;33.23;;;;;;;;;;5034400;28;20406;-49
2021/09/18 09:25:04;;;;;;;41.33;32.03;;;;;;;;;;5034561;28;20402;-48
2021/09/18 09:27:30;;;;;;;50.90;34.33;;;;;;;;;;5033782;28;21042;-46
2021/09/18 09:29:59;;;;;;;49.53;34.00;;;;;;;;;;5034111;28;20541;-46
2021/09/18 09:32:25;;;;;;;51.53;37.67;;;;;;;;;;5034376;28;20402;-48
2021/09/18 09:34:55;;;;;;;53.33;36.13;;;;;;;;;;5034431;28;20460;-47
2021/09/18 09:37:21;;;;;;;46.60;35.63;;;;;;;;;;5034051;28;20425;-47
2021/09/18 09:39:54;;;;;;;44.00;32.90;;;;;;;;;;5034318;28;20402;-46
2021/09/18 09:42:27;;;;;;;46.37;33.10;;;;;;;;;;5034211;28;20769;-48
2021/09/18 09:44:54;;;;;;;46.90;33.27;;;;;;;;;;5034217;28;20492;-47
2021/09/18 09:47:25;;;;;;;46.80;33.00;;;;;;;;;;5034008;28;20465;-47
2021/09/18 09:49:53;;;;;;;48.97;35.60;;;;;;;;;;5034042;28;20460;-47
2021/09/18 09:52:19;;;;;;;49.90;33.00;;;;;;;;;;5033793;28;20442;-49
2021/09/18 09:54:45;;;;;;;48.20;34.00;;;;;;;;;;5034060;28;20436;-46
2021/09/18 09:57:12;;;;;;;45.80;33.23;;;;;;;;;;5033949;28;20426;-47
2021/09/18 09:59:39;;;;;;;49.67;36.13;;;;;;;;;;5033937;28;20402;-47
2021/09/18 10:02:07;;;;;;;45.70;32.20;;;;;;;;;;5033830;28;20405;-50
2021/09/18 10:04:33;;;;;;;43.63;34.20;;;;;;;;;;5033904;28;20749;-47
2021/09/18 10:07:00;;;;;;;41.57;30.97;;;;;;;;;;5033667;28;20961;-46
2021/09/18 10:09:26;;;;;;;42.90;29.83;;;;;;;;;;5033312;28;20409;-47
2021/09/18 10:11:54;;;;;;;41.97;29.13;;;;;;;;;;5033611;28;20458;-47
2021/09/18 10:14:21;;;;;;;36.73;26.93;;;;;;;;;;5033591;28;20891;-47
2021/09/18 10:16:48;;;;;;;35.03;26.40;;;;;;;;;;5033501;28;20961;-47
2021/09/18 10:19:15;;;;;;;38.97;28.60;;;;;;;;;;5033357;28;20887;-47
2021/09/18 10:24:27;;;;;;;28.23;22.00;;;;;;;;;;5033672;28;20456;-47
2021/09/18 10:27:11;;;;;;;25.07;20.20;;;;;;;;;;5033133;28;20422;-47
2021/09/18 10:29:37;;;;;;;25.83;20.97;;;;;;;;;;5033064;28;20409;-50
2021/09/18 10:32:03;;;;;;;27.77;21.43;;;;;;;;;;5033238;28;20402;-50
2021/09/18 10:34:29;;;;;;;22.80;17.63;;;;;;;;;;5033870;28;20411;-46
2021/09/18 10:36:55;;;;;;;20.43;16.03;;;;;;;;;;5033112;28;20479;-48
2021/09/18 10:39:21;;;;;;;18.53;15.90;;;;;;;;;;5032913;28;20418;-47
2021/09/18 10:41:52;;;;;;;19.10;15.17;;;;;;;;;;5033088;28;20453;-47
2021/09/18 10:44:19;;;;;;;22.00;17.37;;;;;;;;;;5033018;28;20910;-50
2021/09/18 10:46:45;;;;;;;26.43;18.33;;;;;;;;;;5032188;28;20442;-46
2021/09/18 10:49:30;;;;;;;19.80;17.53;;;;;;;;;;5032533;28;20403;-47
2021/09/18 10:52:16;;;;;;;24.23;17.97;;;;;;;;;;5032885;28;20424;-46
2021/09/18 10:55:11;;;;;;;26.43;20.43;;;;;;;;;;5032793;28;20412;-48
2021/09/18 10:57:48;;;;;;;25.20;20.50;;;;;;;;;;5011594;28;20525;-47
2021/09/18 11:00:20;;;;;;;20.60;17.93;;;;;;;;;;5032691;28;20540;-47
2021/09/18 11:02:53;;;;;;;24.20;21.00;;;;;;;;;;5032621;28;20452;-45
2021/09/18 11:05:18;;;;;;;23.27;17.10;;;;;;;;;;5032081;28;20906;-47
2021/09/18 11:07:46;;;;;;;28.10;20.90;;;;;;;;;;5032405;28;20437;-47
2021/09/18 11:10:35;;;;;;;25.70;20.70;;;;;;;;;;5032571;28;20468;-45
2021/09/18 11:13:06;;;;;;;24.80;18.77;;;;;;;;;;4986646;28;20417;-50
2021/09/18 11:15:46;;;;;;;22.83;17.70;;;;;;;;;;5034104;28;20410;-46
2021/09/18 11:18:15;;;;;;;23.20;18.90;;;;;;;;;;5031924;28;20767;-46
2021/09/18 11:20:41;;;;;;;25.77;20.50;;;;;;;;;;5032415;28;20413;-46
2021/09/18 11:23:08;;;;;;;26.53;19.93;;;;;;;;;;5032458;28;20414;-45
2021/09/18 11:25:36;;;;;;;28.50;19.20;;;;;;;;;;5033802;28;20418;-46
2021/09/18 11:28:02;;;;;;;21.70;17.97;;;;;;;;;;5031382;28;20460;-47
2021/09/18 11:30:40;;;;;;;28.53;21.00;;;;;;;;;;5013216;28;20563;-48
2021/09/18 11:33:06;;;;;;;22.87;18.70;;;;;;;;;;5032216;28;20394;-45
2021/09/18 11:35:32;;;;;;;24.83;20.17;;;;;;;;;;5032166;28;20417;-44
2021/09/18 11:38:04;;;;;;;26.97;22.97;;;;;;;;;;5031902;28;20414;-48
2021/09/18 11:40:29;;;;;;;25.37;21.03;;;;;;;;;;5032039;28;20409;-46
2021/09/18 11:42:56;;;;;;;23.63;19.50;;;;;;;;;;5032054;28;20410;-45
2021/09/18 11:45:24;;;;;;;24.17;19.17;;;;;;;;;;5031933;28;20902;-45
2021/09/18 11:47:52;;;;;;;22.90;19.00;;;;;;;;;;5031782;28;20913;-46
2021/09/18 11:50:20;;;;;;;18.10;15.93;;;;;;;;;;5031521;28;20449;-46
2021/09/18 11:52:46;;;;;;;20.60;17.10;;;;;;;;;;5031711;28;20901;-46
2021/09/18 11:55:26;;;;;;;17.17;15.37;;;;;;;;;;5030173;28;20391;-47
2021/09/18 11:58:01;;;;;;;17.00;15.20;;;;;;;;;;5031441;28;20404;-50
2021/09/18 12:00:27;;;;;;;15.00;13.20;;;;;;;;;;5031751;28;20402;-46
2021/09/18 12:02:57;;;;;;;14.23;12.67;;;;;;;;;;5031706;28;20425;-46
2021/09/18 12:05:23;;;;;;;13.10;11.77;;;;;;;;;;5031654;28;20398;-49
2021/09/18 12:07:49;;;;;;;12.07;10.70;;;;;;;;;;5031557;28;20409;-50
2021/09/18 12:10:16;;;;;;;11.90;10.73;;;;;;;;;;5031394;28;20497;-47
2021/09/18 12:12:45;;;;;;;15.07;12.70;;;;;;;;;;5031742;28;20430;-46
2021/09/18 12:15:11;;;;;;;11.70;10.50;;;;;;;;;;5031650;28;20473;-46
2021/09/18 12:17:38;;;;;;;12.73;11.50;;;;;;;;;;5033934;28;20833;-46
2021/09/18 12:20:08;;;;;;;13.27;11.60;;;;;;;;;;5035735;28;20890;-48
2021/09/18 12:22:34;;;;;;;11.17;10.00;;;;;;;;;;5035590;28;20410;-47
2021/09/18 12:25:00;;;;;;;11.10;9.70;;;;;;;;;;5035472;28;20402;-47
2021/09/18 12:27:29;;;;;;;14.70;10.40;;;;;;;;;;5035507;28;20479;-50
2021/09/18 12:29:59;;;;;;;12.07;10.87;;;;;;;;;;5035220;28;20949;-47
2021/09/18 12:32:25;;;;;;;9.03;8.23;;;;;;;;;;5035571;28;20824;-48
2021/09/18 12:34:51;;;;;;;12.00;10.80;;;;;;;;;;5035459;28;20403;-47
2021/09/18 12:37:17;;;;;;;9.30;8.17;;;;;;;;;;5035153;28;20834;-49
2021/09/18 12:39:43;;;;;;;8.20;7.60;;;;;;;;;;5035166;28;20394;-50
2021/09/18 12:42:10;;;;;;;12.00;10.80;;;;;;;;;;5035399;28;20426;-48
2021/09/18 12:44:41;;;;;;;12.97;11.10;;;;;;;;;;5035273;28;20775;-48
2021/09/18 12:47:20;;;;;;;11.33;10.27;;;;;;;;;;5035200;28;20418;-45
2021/09/18 12:49:46;;;;;;;14.20;10.83;;;;;;;;;;5034969;28;20532;-48
2021/09/18 12:52:12;;;;;;;14.93;10.47;;;;;;;;;;5035121;28;20485;-45
2021/09/18 12:54:45;;;;;;;11.60;10.40;;;;;;;;;;5035286;28;20909;-45
2021/09/18 12:57:12;;;;;;;11.93;9.50;;;;;;;;;;5035123;28;20446;-46
2021/09/18 12:59:41;;;;;;;10.10;9.20;;;;;;;;;;5034769;28;20403;-45
2021/09/18 13:02:07;;;;;;;8.50;7.63;;;;;;;;;;5034980;28;20905;-47
2021/09/18 13:04:34;;;;;;;10.00;9.00;;;;;;;;;;5035299;28;20399;-46
2021/09/18 13:07:04;;;;;;;7.97;6.93;;;;;;;;;;5034831;28;20418;-47
2021/09/18 13:09:31;;;;;;;6.80;6.17;;;;;;;;;;5034769;28;20394;-46
2021/09/18 13:11:59;;;;;;;7.27;6.57;;;;;;;;;;5034669;28;20818;-45
2021/09/18 13:14:31;;;;;;;6.60;6.10;;;;;;;;;;5034870;28;20401;-46
2021/09/18 13:16:57;;;;;;;7.80;5.60;;;;;;;;;;5016588;28;20457;-46
2021/09/18 13:19:23;;;;;;;7.03;6.43;;;;;;;;;;5034442;28;20406;-46
2021/09/18 13:21:49;;;;;;;7.20;5.50;;;;;;;;;;5034681;28;20459;-46
2021/09/18 13:24:15;;;;;;;8.30;7.50;;;;;;;;;;5033156;28;20406;-46
2021/09/18 13:26:41;;;;;;;9.53;8.00;;;;;;;;;;5034567;28;20480;-46
2021/09/18 13:29:09;;;;;;;9.07;7.77;;;;;;;;;;5033745;28;20402;-47
2021/09/18 13:31:35;;;;;;;8.00;7.40;;;;;;;;;;5034362;28;20446;-46
2021/09/18 13:34:01;;;;;;;7.00;6.40;;;;;;;;;;5034484;28;20509;-47
2021/09/18 13:36:27;;;;;;;6.20;5.60;;;;;;;;;;5034336;28;20419;-46
2021/09/18 13:38:53;;;;;;;7.63;6.83;;;;;;;;;;5034180;28;20456;-46
2021/09/18 13:41:19;;;;;;;6.90;5.70;;;;;;;;;;5034290;28;20402;-46
2021/09/18 13:43:45;;;;;;;6.07;5.57;;;;;;;;;;5034274;28;20406;-47
2021/09/18 13:46:11;;;;;;;6.40;5.80;;;;;;;;;;5034136;28;20430;-47
2021/09/18 13:48:37;;;;;;;7.43;6.13;;;;;;;;;;5034010;28;20765;-47
2021/09/18 13:51:04;;;;;;;6.67;6.07;;;;;;;;;;5034039;28;20450;-47
2021/09/18 13:53:30;;;;;;;6.43;5.83;;;;;;;;;;5034174;28;20950;-46
2021/09/18 13:55:56;;;;;;;6.60;6.00;;;;;;;;;;5033929;28;20422;-46
2021/09/18 13:58:23;;;;;;;6.93;6.20;;;;;;;;;;5033369;28;20452;-48
2021/09/18 14:00:49;;;;;;;7.00;6.30;;;;;;;;;;5033227;28;20772;-51
2021/09/18 14:03:15;;;;;;;6.93;5.47;;;;;;;;;;5033182;28;20410;-50
2021/09/18 14:05:41;;;;;;;6.93;6.33;;;;;;;;;;5033283;28;20425;-50
2021/09/18 14:08:08;;;;;;;9.00;5.10;;;;;;;;;;5033519;28;20809;-46
2021/09/18 14:10:34;;;;;;;6.83;5.53;;;;;;;;;;5033764;28;20453;-49
2021/09/18 14:13:00;;;;;;;6.23;5.63;;;;;;;;;;5033293;28;20879;-50
2021/09/18 14:15:26;;;;;;;6.37;5.20;;;;;;;;;;5032838;28;20489;-49
2021/09/18 14:17:52;;;;;;;6.10;5.50;;;;;;;;;;5033328;28;20402;-49
2021/09/18 14:20:18;;;;;;;5.67;5.17;;;;;;;;;;5033243;28;21071;-52